AVA2157 SEQM-SEGU
Flight info
| Callsign | AVA2157 |
|---|---|
| Flight time | 0h 35m |
| Altitude | 25000 |
| Route | TEMO3A TEMOX TEMOX2 |
| Aircraft | A20N/M-V/N |
Departure
| Time | 2026-04-26 02:26 |
|---|---|
| Airport | Mariscal Sucre International Airport (SEQM) |
Arrival
| Time | 2026-04-26 03:01 |
|---|---|
| Airport | José Joaquín de Olmedo International Airport (SEGU) |
| Time | Latitude | Longitude | Altitude | Speed | Heading |
|---|---|---|---|---|---|
| 2026-04-26 02:01 | -0.12704 | -78.35929 | 7872 ft | 0 kts | 267° |
| 2026-04-26 02:14 | -0.12704 | -78.35927 | 7872 ft | 1 kts | 267° |
| 2026-04-26 02:14 | -0.12703 | -78.35913 | 7872 ft | 3 kts | 267° |
| 2026-04-26 02:15 | -0.12702 | -78.35893 | 7872 ft | 3 kts | 267° |
| 2026-04-26 02:15 | -0.12701 | -78.35876 | 7872 ft | 3 kts | 267° |
| 2026-04-26 02:15 | -0.12698 | -78.35857 | 7872 ft | 3 kts | 250° |
| 2026-04-26 02:15 | -0.12687 | -78.35839 | 7872 ft | 3 kts | 228° |
| 2026-04-26 02:16 | -0.12671 | -78.35826 | 7872 ft | 3 kts | 208° |
| 2026-04-26 02:16 | -0.12666 | -78.35824 | 7872 ft | 0 kts | 204° |
| 2026-04-26 02:17 | -0.12667 | -78.35824 | 7872 ft | 0 kts | 204° |
| 2026-04-26 02:17 | -0.12669 | -78.35825 | 7872 ft | 2 kts | 199° |
| 2026-04-26 02:18 | -0.12691 | -78.35817 | 7872 ft | 5 kts | 129° |
| 2026-04-26 02:18 | -0.12697 | -78.35778 | 7872 ft | 6 kts | 92° |
| 2026-04-26 02:18 | -0.12696 | -78.35729 | 7872 ft | 7 kts | 86° |
| 2026-04-26 02:18 | -0.12694 | -78.35674 | 7872 ft | 8 kts | 88° |
| 2026-04-26 02:19 | -0.12693 | -78.35617 | 7872 ft | 7 kts | 93° |
| 2026-04-26 02:19 | -0.12714 | -78.35600 | 7872 ft | 3 kts | 174° |
| 2026-04-26 02:19 | -0.12735 | -78.35599 | 7872 ft | 3 kts | 177° |
| 2026-04-26 02:19 | -0.12761 | -78.35598 | 7872 ft | 4 kts | 177° |
| 2026-04-26 02:20 | -0.12797 | -78.35596 | 7872 ft | 6 kts | 177° |
| 2026-04-26 02:20 | -0.12844 | -78.35594 | 7872 ft | 8 kts | 178° |
| 2026-04-26 02:20 | -0.12912 | -78.35591 | 7872 ft | 12 kts | 178° |
| 2026-04-26 02:20 | -0.13008 | -78.35587 | 7872 ft | 16 kts | 178° |
| 2026-04-26 02:21 | -0.13128 | -78.35582 | 7872 ft | 19 kts | 177° |
| 2026-04-26 02:21 | -0.13264 | -78.35575 | 7872 ft | 20 kts | 177° |
| 2026-04-26 02:21 | -0.13398 | -78.35569 | 7872 ft | 19 kts | 177° |
| 2026-04-26 02:21 | -0.13486 | -78.35565 | 7872 ft | 19 kts | 177° |
| 2026-04-26 02:22 | -0.13654 | -78.35558 | 7872 ft | 18 kts | 177° |
| 2026-04-26 02:22 | -0.13735 | -78.35554 | 7872 ft | 17 kts | 177° |
| 2026-04-26 02:22 | -0.13852 | -78.35549 | 7872 ft | 17 kts | 177° |
| 2026-04-26 02:22 | -0.13936 | -78.35545 | 7872 ft | 16 kts | 178° |
| 2026-04-26 02:23 | -0.14045 | -78.35541 | 7872 ft | 15 kts | 178° |
| 2026-04-26 02:23 | -0.14151 | -78.35537 | 7872 ft | 14 kts | 178° |
| 2026-04-26 02:23 | -0.14235 | -78.35513 | 7872 ft | 11 kts | 137° |
| 2026-04-26 02:23 | -0.14258 | -78.35451 | 7872 ft | 8 kts | 92° |
| 2026-04-26 02:24 | -0.14259 | -78.35401 | 7872 ft | 6 kts | 89° |
| 2026-04-26 02:24 | -0.14254 | -78.35371 | 7872 ft | 3 kts | 59° |
| 2026-04-26 02:24 | -0.14240 | -78.35362 | 7872 ft | 3 kts | 14° |
| 2026-04-26 02:24 | -0.14210 | -78.35361 | 7872 ft | 5 kts | 360° |
| 2026-04-26 02:25 | -0.14101 | -78.35363 | 7872 ft | 38 kts | 358° |
| 2026-04-26 02:25 | -0.13634 | -78.35386 | 7873 ft | 96 kts | 358° |
| 2026-04-26 02:25 | -0.12784 | -78.35423 | 7874 ft | 144 kts | 357° |
| 2026-04-26 02:25 | -0.11756 | -78.35468 | 8239 ft | 151 kts | 357° |
| 2026-04-26 02:26 | -0.10654 | -78.35517 | 8660 ft | 168 kts | 357° |
| 2026-04-26 02:26 | -0.09436 | -78.35664 | 9095 ft | 186 kts | 349° |
| 2026-04-26 02:26 | -0.08148 | -78.36064 | 9541 ft | 207 kts | 341° |
| 2026-04-26 02:26 | -0.06672 | -78.36573 | 9787 ft | 237 kts | 341° |
| 2026-04-26 02:27 | -0.05040 | -78.37141 | 10193 ft | 258 kts | 341° |
| 2026-04-26 02:27 | -0.03300 | -78.37754 | 10648 ft | 275 kts | 340° |
| 2026-04-26 02:27 | -0.01416 | -78.38420 | 11065 ft | 294 kts | 341° |
| 2026-04-26 02:27 | 0.00537 | -78.39077 | 11614 ft | 304 kts | 339° |
| 2026-04-26 02:28 | 0.02617 | -78.39707 | 12149 ft | 316 kts | 340° |
| 2026-04-26 02:28 | 0.04762 | -78.40301 | 12756 ft | 322 kts | 341° |
| 2026-04-26 02:28 | 0.06938 | -78.40887 | 13413 ft | 325 kts | 340° |
| 2026-04-26 02:28 | 0.08987 | -78.41827 | 13893 ft | 329 kts | 326° |
| 2026-04-26 02:29 | 0.10787 | -78.43262 | 14398 ft | 330 kts | 313° |
| 2026-04-26 02:29 | 0.12268 | -78.45023 | 14956 ft | 331 kts | 303° |
| 2026-04-26 02:29 | 0.13381 | -78.47053 | 15384 ft | 337 kts | 291° |
| 2026-04-26 02:29 | 0.13805 | -78.49371 | 15579 ft | 349 kts | 272° |
| 2026-04-26 02:30 | 0.13653 | -78.51785 | 16271 ft | 347 kts | 264° |
| 2026-04-26 02:30 | 0.13366 | -78.54236 | 16588 ft | 358 kts | 263° |
| 2026-04-26 02:30 | 0.13016 | -78.56707 | 17231 ft | 353 kts | 261° |
| 2026-04-26 02:30 | 0.12356 | -78.59016 | 18050 ft | 351 kts | 247° |
| 2026-04-26 02:31 | 0.10906 | -78.61002 | 18656 ft | 353 kts | 227° |
| 2026-04-26 02:31 | 0.08874 | -78.62383 | 19291 ft | 354 kts | 212° |
| 2026-04-26 02:31 | 0.06647 | -78.63374 | 19922 ft | 352 kts | 205° |
| 2026-04-26 02:31 | 0.04349 | -78.64209 | 20553 ft | 347 kts | 203° |
| 2026-04-26 02:32 | 0.02090 | -78.64967 | 21172 ft | 341 kts | 202° |
| 2026-04-26 02:32 | -0.00130 | -78.65701 | 21790 ft | 334 kts | 202° |
| 2026-04-26 02:32 | -0.02305 | -78.66430 | 22409 ft | 326 kts | 202° |
| 2026-04-26 02:32 | -0.04427 | -78.67177 | 23032 ft | 315 kts | 205° |
| 2026-04-26 02:33 | -0.06377 | -78.68107 | 23655 ft | 303 kts | 212° |
| 2026-04-26 02:33 | -0.08192 | -78.69164 | 23962 ft | 304 kts | 216° |
| 2026-04-26 02:33 | -0.09942 | -78.70375 | 24007 ft | 312 kts | 219° |
| 2026-04-26 02:33 | -0.11718 | -78.71711 | 24007 ft | 322 kts | 221° |
| 2026-04-26 02:34 | -0.13502 | -78.73099 | 24002 ft | 333 kts | 221° |
| 2026-04-26 02:34 | -0.15352 | -78.74558 | 24000 ft | 343 kts | 221° |
| 2026-04-26 02:34 | -0.17252 | -78.76068 | 23999 ft | 354 kts | 221° |
| 2026-04-26 02:34 | -0.19201 | -78.77627 | 23999 ft | 365 kts | 221° |
| 2026-04-26 02:35 | -0.21213 | -78.79243 | 23999 ft | 376 kts | 221° |
| 2026-04-26 02:35 | -0.23260 | -78.80893 | 23999 ft | 388 kts | 221° |
| 2026-04-26 02:35 | -0.25408 | -78.82630 | 23999 ft | 399 kts | 221° |
| 2026-04-26 02:35 | -0.27587 | -78.84399 | 23999 ft | 411 kts | 221° |
| 2026-04-26 02:36 | -0.29830 | -78.86226 | 23999 ft | 422 kts | 221° |
| 2026-04-26 02:36 | -0.32149 | -78.88120 | 23999 ft | 432 kts | 221° |
| 2026-04-26 02:36 | -0.34496 | -78.90041 | 23998 ft | 441 kts | 221° |
| 2026-04-26 02:36 | -0.36876 | -78.91994 | 23998 ft | 449 kts | 221° |
| 2026-04-26 02:37 | -0.39330 | -78.94012 | 23998 ft | 456 kts | 222° |
| 2026-04-26 02:37 | -0.41763 | -78.96016 | 23998 ft | 462 kts | 222° |
| 2026-04-26 02:37 | -0.44285 | -78.98096 | 23997 ft | 467 kts | 222° |
| 2026-04-26 02:37 | -0.46796 | -79.00171 | 23997 ft | 471 kts | 222° |
| 2026-04-26 02:38 | -0.49297 | -79.02240 | 23996 ft | 468 kts | 222° |
| 2026-04-26 02:38 | -0.51814 | -79.04321 | 23995 ft | 467 kts | 222° |
| 2026-04-26 02:38 | -0.54317 | -79.06393 | 23995 ft | 465 kts | 222° |
| 2026-04-26 02:38 | -0.56775 | -79.08428 | 23995 ft | 464 kts | 222° |
| 2026-04-26 02:39 | -0.59309 | -79.10462 | 23995 ft | 465 kts | 219° |
| 2026-04-26 02:39 | -0.61934 | -79.12335 | 23996 ft | 465 kts | 217° |
| 2026-04-26 02:39 | -0.64661 | -79.14098 | 23996 ft | 466 kts | 214° |
| 2026-04-26 02:39 | -0.67453 | -79.15770 | 23996 ft | 466 kts | 213° |
| 2026-04-26 02:40 | -0.70285 | -79.17369 | 23996 ft | 467 kts | 211° |
| 2026-04-26 02:40 | -0.73138 | -79.18907 | 23996 ft | 467 kts | 211° |
| 2026-04-26 02:40 | -0.75988 | -79.20391 | 23996 ft | 467 kts | 210° |
| 2026-04-26 02:40 | -0.78926 | -79.21879 | 23996 ft | 467 kts | 209° |
| 2026-04-26 02:41 | -0.81809 | -79.23308 | 23996 ft | 467 kts | 209° |
| 2026-04-26 02:41 | -0.84740 | -79.24739 | 23996 ft | 467 kts | 208° |
| 2026-04-26 02:41 | -0.87681 | -79.26157 | 23996 ft | 468 kts | 208° |
| 2026-04-26 02:41 | -0.90632 | -79.27566 | 23996 ft | 468 kts | 208° |
| 2026-04-26 02:42 | -0.93562 | -79.28956 | 23996 ft | 468 kts | 208° |
| 2026-04-26 02:42 | -0.96486 | -79.30335 | 23996 ft | 468 kts | 208° |
| 2026-04-26 02:42 | -0.99432 | -79.31720 | 23996 ft | 468 kts | 208° |
| 2026-04-26 02:42 | -1.01268 | -79.32580 | 23996 ft | 468 kts | 208° |
| 2026-04-26 02:43 | -1.05853 | -79.34724 | 23996 ft | 468 kts | 207° |
| 2026-04-26 02:43 | -1.08835 | -79.36116 | 23996 ft | 468 kts | 207° |
| 2026-04-26 02:43 | -1.11757 | -79.37478 | 23996 ft | 468 kts | 207° |
| 2026-04-26 02:44 | -1.14700 | -79.38849 | 23995 ft | 464 kts | 207° |
| 2026-04-26 02:44 | -1.17582 | -79.40186 | 23847 ft | 442 kts | 207° |
| 2026-04-26 02:44 | -1.20313 | -79.41449 | 23487 ft | 424 kts | 208° |
| 2026-04-26 02:44 | -1.22949 | -79.42668 | 23070 ft | 408 kts | 208° |
| 2026-04-26 02:45 | -1.25461 | -79.43831 | 22647 ft | 394 kts | 208° |
| 2026-04-26 02:45 | -1.27923 | -79.44973 | 22214 ft | 380 kts | 208° |
| 2026-04-26 02:45 | -1.30263 | -79.46060 | 21670 ft | 370 kts | 208° |
| 2026-04-26 02:45 | -1.32592 | -79.47145 | 21051 ft | 362 kts | 208° |
| 2026-04-26 02:46 | -1.34826 | -79.48185 | 20428 ft | 349 kts | 208° |
| 2026-04-26 02:46 | -1.36982 | -79.49189 | 19778 ft | 336 kts | 208° |
| 2026-04-26 02:46 | -1.38833 | -79.50051 | 19132 ft | 324 kts | 209° |
| 2026-04-26 02:46 | -1.38851 | -79.50060 | 19126 ft | 324 kts | 209° |
| 2026-04-26 02:47 | -1.40049 | -79.50617 | 18683 ft | 317 kts | 209° |
| 2026-04-26 02:47 | -1.40532 | -79.50843 | 18501 ft | 314 kts | 209° |
| 2026-04-26 02:47 | -1.42478 | -79.51751 | 17751 ft | 304 kts | 209° |
| 2026-04-26 02:47 | -1.44379 | -79.52639 | 16996 ft | 296 kts | 209° |
| 2026-04-26 02:48 | -1.46230 | -79.53505 | 16240 ft | 290 kts | 209° |
| 2026-04-26 02:48 | -1.48031 | -79.54349 | 15376 ft | 288 kts | 209° |
| 2026-04-26 02:48 | -1.49861 | -79.55206 | 14467 ft | 287 kts | 209° |
| 2026-04-26 02:48 | -1.51655 | -79.56044 | 13572 ft | 286 kts | 209° |
| 2026-04-26 02:49 | -1.53448 | -79.56879 | 12674 ft | 284 kts | 209° |
| 2026-04-26 02:49 | -1.55257 | -79.57720 | 11763 ft | 283 kts | 209° |
| 2026-04-26 02:49 | -1.57015 | -79.58536 | 10951 ft | 279 kts | 208° |
| 2026-04-26 02:49 | -1.57164 | -79.58605 | 10929 ft | 277 kts | 208° |
| 2026-04-26 02:50 | -1.57335 | -79.58685 | 10921 ft | 273 kts | 208° |
| 2026-04-26 02:50 | -1.58995 | -79.59449 | 10705 ft | 255 kts | 209° |
| 2026-04-26 02:50 | -1.60583 | -79.60184 | 10273 ft | 252 kts | 209° |
| 2026-04-26 02:50 | -1.62161 | -79.60919 | 9775 ft | 251 kts | 209° |
| 2026-04-26 02:51 | -1.63741 | -79.61656 | 9275 ft | 250 kts | 209° |
| 2026-04-26 02:51 | -1.65327 | -79.62396 | 8770 ft | 249 kts | 209° |
| 2026-04-26 02:51 | -1.66894 | -79.63126 | 8271 ft | 248 kts | 209° |
| 2026-04-26 02:51 | -1.68452 | -79.63852 | 7772 ft | 248 kts | 209° |
| 2026-04-26 02:52 | -1.70018 | -79.64581 | 7270 ft | 247 kts | 209° |
| 2026-04-26 02:52 | -1.71561 | -79.65299 | 6774 ft | 246 kts | 209° |
| 2026-04-26 02:52 | -1.73120 | -79.66025 | 6298 ft | 246 kts | 208° |
| 2026-04-26 02:52 | -1.74146 | -79.66504 | 6155 ft | 239 kts | 206° |
| 2026-04-26 02:53 | -1.76092 | -79.67415 | 5888 ft | 229 kts | 206° |
| 2026-04-26 02:53 | -1.77545 | -79.68086 | 5687 ft | 232 kts | 207° |
| 2026-04-26 02:53 | -1.79022 | -79.68773 | 5496 ft | 236 kts | 206° |
| 2026-04-26 02:53 | -1.80522 | -79.69470 | 5369 ft | 239 kts | 207° |
| 2026-04-26 02:54 | -1.80937 | -79.69662 | 5335 ft | 240 kts | 207° |
| 2026-04-26 02:54 | -1.82479 | -79.70380 | 5211 ft | 243 kts | 207° |
| 2026-04-26 02:54 | -1.84024 | -79.71100 | 5088 ft | 246 kts | 207° |
| 2026-04-26 02:54 | -1.85574 | -79.71820 | 4994 ft | 247 kts | 207° |
| 2026-04-26 02:55 | -1.87136 | -79.72546 | 4869 ft | 248 kts | 207° |
| 2026-04-26 02:55 | -1.88692 | -79.73270 | 4744 ft | 249 kts | 207° |
| 2026-04-26 02:55 | -1.90268 | -79.74003 | 4619 ft | 248 kts | 207° |
| 2026-04-26 02:55 | -1.91815 | -79.74756 | 4494 ft | 248 kts | 208° |
| 2026-04-26 02:56 | -1.93349 | -79.75559 | 4369 ft | 247 kts | 209° |
| 2026-04-26 02:56 | -1.94859 | -79.76344 | 4245 ft | 244 kts | 208° |
| 2026-04-26 02:56 | -1.96337 | -79.77119 | 4113 ft | 233 kts | 209° |
| 2026-04-26 02:56 | -1.97729 | -79.77872 | 3934 ft | 223 kts | 210° |
| 2026-04-26 02:57 | -1.99035 | -79.78602 | 3678 ft | 205 kts | 210° |
| 2026-04-26 02:57 | -2.00219 | -79.79283 | 3416 ft | 187 kts | 210° |
| 2026-04-26 02:57 | -2.01316 | -79.79925 | 3162 ft | 181 kts | 210° |
| 2026-04-26 02:57 | -2.02389 | -79.80560 | 2912 ft | 180 kts | 211° |
| 2026-04-26 02:58 | -2.03461 | -79.81200 | 2718 ft | 176 kts | 211° |
| 2026-04-26 02:58 | -2.04484 | -79.81814 | 2590 ft | 172 kts | 211° |
| 2026-04-26 02:58 | -2.05515 | -79.82434 | 2425 ft | 175 kts | 211° |
| 2026-04-26 02:58 | -2.06566 | -79.83066 | 2210 ft | 178 kts | 211° |
| 2026-04-26 02:59 | -2.07646 | -79.83680 | 1943 ft | 175 kts | 209° |
| 2026-04-26 02:59 | -2.08678 | -79.84240 | 1680 ft | 162 kts | 208° |
| 2026-04-26 02:59 | -2.09636 | -79.84772 | 1420 ft | 153 kts | 209° |
| 2026-04-26 02:59 | -2.10547 | -79.85286 | 1198 ft | 149 kts | 210° |
| 2026-04-26 03:00 | -2.11479 | -79.85832 | 1006 ft | 159 kts | 211° |
| 2026-04-26 03:00 | -2.12446 | -79.86405 | 807 ft | 165 kts | 211° |
| 2026-04-26 03:00 | -2.13450 | -79.87000 | 480 ft | 170 kts | 211° |
| 2026-04-26 03:00 | -2.14457 | -79.87598 | 141 ft | 164 kts | 210° |
| 2026-04-26 03:01 | -2.15394 | -79.88147 | 31 ft | 134 kts | 210° |
| 2026-04-26 03:01 | -2.15950 | -79.88474 | 31 ft | 46 kts | 210° |
| 2026-04-26 03:01 | -2.16075 | -79.88548 | 31 ft | 18 kts | 210° |
| 2026-04-26 03:01 | -2.16192 | -79.88617 | 31 ft | 19 kts | 210° |
| 2026-04-26 03:02 | -2.16242 | -79.88697 | 31 ft | 12 kts | 305° |
| 2026-04-26 03:02 | -2.16194 | -79.88767 | 31 ft | 9 kts | 304° |
| 2026-04-26 03:02 | -2.16162 | -79.88775 | 31 ft | 5 kts | 31° |
| 2026-04-26 03:02 | -2.16123 | -79.88751 | 31 ft | 9 kts | 31° |
| 2026-04-26 03:03 | -2.16055 | -79.88710 | 31 ft | 14 kts | 31° |
| 2026-04-26 03:03 | -2.15959 | -79.88653 | 31 ft | 18 kts | 31° |
| 2026-04-26 03:03 | -2.15878 | -79.88604 | 31 ft | 10 kts | 31° |
| 2026-04-26 03:03 | -2.15828 | -79.88582 | 31 ft | 4 kts | 339° |
| 2026-04-26 03:04 | -2.15808 | -79.88613 | 31 ft | 7 kts | 305° |
| 2026-04-26 03:04 | -2.15779 | -79.88654 | 31 ft | 4 kts | 302° |
| 2026-04-26 03:04 | -2.15778 | -79.88656 | 31 ft | 0 kts | 302° |